sensor_id;sensor_type;location;lat;lon;timestamp;pressure;altitude;pressure_sealevel;temperature;humidity
46394;BME280;32099;53.588;10.176;2023-03-22T00:02:22;100593.84;;;9.17;86.97
46394;BME280;32099;53.588;10.176;2023-03-22T00:04:49;100581.94;;;9.18;87.15
46394;BME280;32099;53.588;10.176;2023-03-22T00:07:15;100582.13;;;9.17;87.03
46394;BME280;32099;53.588;10.176;2023-03-22T00:09:40;100582.94;;;9.17;87.19
46394;BME280;32099;53.588;10.176;2023-03-22T00:12:05;100582.28;;;9.15;87.03
46394;BME280;32099;53.588;10.176;2023-03-22T00:14:31;100583.97;;;9.16;87.71
46394;BME280;32099;53.588;10.176;2023-03-22T00:16:56;100571.03;;;9.18;87.70
46394;BME280;32099;53.588;10.176;2023-03-22T00:19:21;100570.03;;;9.19;88.20
46394;BME280;32099;53.588;10.176;2023-03-22T00:21:47;100566.28;;;9.20;88.10
46394;BME280;32099;53.588;10.176;2023-03-22T00:24:12;100561.38;;;9.16;88.96
46394;BME280;32099;53.588;10.176;2023-03-22T00:26:38;100566.09;;;9.22;88.70
46394;BME280;32099;53.588;10.176;2023-03-22T00:29:03;100561.31;;;9.24;88.54
46394;BME280;32099;53.588;10.176;2023-03-22T00:31:29;100557.56;;;9.25;88.78
46394;BME280;32099;53.588;10.176;2023-03-22T00:33:54;100556.56;;;9.26;89.45
46394;BME280;32099;53.588;10.176;2023-03-22T00:36:20;100537.16;;;9.29;90.16
46394;BME280;32099;53.588;10.176;2023-03-22T00:38:45;100533.22;;;9.32;88.79
46394;BME280;32099;53.588;10.176;2023-03-22T00:43:37;100544.94;;;9.32;89.28
46394;BME280;32099;53.588;10.176;2023-03-22T00:46:03;100545.13;;;9.31;88.86
46394;BME280;32099;53.588;10.176;2023-03-22T00:48:28;100547.66;;;9.32;88.41
46394;BME280;32099;53.588;10.176;2023-03-22T00:50:54;100544.47;;;9.29;88.53
46394;BME280;32099;53.588;10.176;2023-03-22T00:53:19;100545.31;;;9.29;88.36
46394;BME280;32099;53.588;10.176;2023-03-22T00:55:44;100542.41;;;9.31;88.50
46394;BME280;32099;53.588;10.176;2023-03-22T00:58:10;100545.81;;;9.33;88.60
46394;BME280;32099;53.588;10.176;2023-03-22T01:00:35;100534.06;;;9.32;88.32
46394;BME280;32099;53.588;10.176;2023-03-22T01:03:00;100536.41;;;9.35;88.24
46394;BME280;32099;53.588;10.176;2023-03-22T01:05:29;100531.66;;;9.37;88.41
46394;BME280;32099;53.588;10.176;2023-03-22T01:07:58;100532.13;;;9.41;88.00
46394;BME280;32099;53.588;10.176;2023-03-22T01:10:26;100529.25;;;9.43;87.92
46394;BME280;32099;53.588;10.176;2023-03-22T01:12:51;100524.63;;;9.43;87.82
46394;BME280;32099;53.588;10.176;2023-03-22T01:15:18;100528.03;;;9.45;87.95
46394;BME280;32099;53.588;10.176;2023-03-22T01:17:43;100525.97;;;9.47;87.83
46394;BME280;32099;53.588;10.176;2023-03-22T01:20:08;100515.09;;;9.47;87.72
46394;BME280;32099;53.588;10.176;2023-03-22T01:22:35;100517.81;;;9.47;88.24
46394;BME280;32099;53.588;10.176;2023-03-22T01:25:10;100515.09;;;9.47;88.14
46394;BME280;32099;53.588;10.176;2023-03-22T01:27:36;100514.22;;;9.47;88.16
46394;BME280;32099;53.588;10.176;2023-03-22T01:30:02;100497.75;;;9.48;88.07
46394;BME280;32099;53.588;10.176;2023-03-22T01:32:29;100501.28;;;9.49;88.20
46394;BME280;32099;53.588;10.176;2023-03-22T01:34:55;100498.22;;;9.52;88.17
46394;BME280;32099;53.588;10.176;2023-03-22T01:37:20;100491.75;;;9.53;87.60
46394;BME280;32099;53.588;10.176;2023-03-22T01:39:51;100497.00;;;9.54;87.53
46394;BME280;32099;53.588;10.176;2023-03-22T01:42:17;100495.09;;;9.55;88.10
46394;BME280;32099;53.588;10.176;2023-03-22T01:45:09;100487.13;;;9.53;87.70
46394;BME280;32099;53.588;10.176;2023-03-22T01:47:44;100485.44;;;9.52;87.69
46394;BME280;32099;53.588;10.176;2023-03-22T01:50:13;100484.41;;;9.53;87.87
46394;BME280;32099;53.588;10.176;2023-03-22T01:52:40;100471.81;;;9.52;87.90
46394;BME280;32099;53.588;10.176;2023-03-22T01:55:06;100473.72;;;9.52;88.26
46394;BME280;32099;53.588;10.176;2023-03-22T01:57:33;100464.88;;;9.50;87.90
46394;BME280;32099;53.588;10.176;2023-03-22T02:00:02;100455.03;;;9.49;87.96
46394;BME280;32099;53.588;10.176;2023-03-22T02:02:34;100462.16;;;9.50;87.84
46394;BME280;32099;53.588;10.176;2023-03-22T02:05:00;100454.66;;;9.52;88.17
46394;BME280;32099;53.588;10.176;2023-03-22T02:07:25;100460.94;;;9.52;88.16
46394;BME280;32099;53.588;10.176;2023-03-22T02:09:51;100447.34;;;9.52;88.02
46394;BME280;32099;53.588;10.176;2023-03-22T02:12:39;100452.78;;;9.52;88.26
46394;BME280;32099;53.588;10.176;2023-03-22T02:18:04;100443.78;;;9.52;88.21
46394;BME280;32099;53.588;10.176;2023-03-22T02:26:26;100439.84;;;9.54;88.02
46394;BME280;32099;53.588;10.176;2023-03-22T02:28:59;100444.25;;;9.55;88.45
46394;BME280;32099;53.588;10.176;2023-03-22T02:35:02;100431.47;;;9.56;87.92
46394;BME280;32099;53.588;10.176;2023-03-22T02:40:51;100421.44;;;9.56;87.66
46394;BME280;32099;53.588;10.176;2023-03-22T02:44:01;100419.75;;;9.55;87.41
46394;BME280;32099;53.588;10.176;2023-03-22T02:46:45;100420.31;;;9.51;87.41
46394;BME280;32099;53.588;10.176;2023-03-22T02:52:13;100423.03;;;9.51;87.85
46394;BME280;32099;53.588;10.176;2023-03-22T02:54:59;100432.69;;;9.53;87.99
46394;BME280;32099;53.588;10.176;2023-03-22T03:00:20;100428.13;;;9.54;87.67
46394;BME280;32099;53.588;10.176;2023-03-22T03:02:57;100417.41;;;9.52;87.50
46394;BME280;32099;53.588;10.176;2023-03-22T03:05:35;100409.22;;;9.52;87.77
46394;BME280;32099;53.588;10.176;2023-03-22T03:08:03;100405.69;;;9.52;87.73
46394;BME280;32099;53.588;10.176;2023-03-22T03:10:30;100409.22;;;9.52;88.23
46394;BME280;32099;53.588;10.176;2023-03-22T03:12:57;100416.38;;;9.53;87.79
46394;BME280;32099;53.588;10.176;2023-03-22T03:15:22;100407.38;;;9.53;87.85
46394;BME280;32099;53.588;10.176;2023-03-22T03:17:59;100402.28;;;9.50;88.16
46394;BME280;32099;53.588;10.176;2023-03-22T03:21:02;100395.16;;;9.49;87.65
46394;BME280;32099;53.588;10.176;2023-03-22T03:29:05;100389.34;;;9.52;87.86
46394;BME280;32099;53.588;10.176;2023-03-22T03:31:46;100392.06;;;9.52;87.88
46394;BME280;32099;53.588;10.176;2023-03-22T03:34:21;100388.31;;;9.53;88.05
46394;BME280;32099;53.588;10.176;2023-03-22T03:36:58;100380.31;;;9.51;88.61
46394;BME280;32099;53.588;10.176;2023-03-22T03:39:32;100384.72;;;9.52;88.56
46394;BME280;32099;53.588;10.176;2023-03-22T03:42:02;100383.69;;;9.53;87.94
46394;BME280;32099;53.588;10.176;2023-03-22T03:44:31;100379.94;;;9.54;88.45
46394;BME280;32099;53.588;10.176;2023-03-22T03:47:00;100381.66;;;9.55;88.59
46394;BME280;32099;53.588;10.176;2023-03-22T03:49:26;100378.06;;;9.55;88.81
46394;BME280;32099;53.588;10.176;2023-03-22T03:51:52;100378.06;;;9.55;88.58
46394;BME280;32099;53.588;10.176;2023-03-22T03:54:19;100385.59;;;9.53;88.80
46394;BME280;32099;53.588;10.176;2023-03-22T03:56:45;100373.69;;;9.54;88.74
46394;BME280;32099;53.588;10.176;2023-03-22T03:59:15;100373.47;;;9.55;88.52
46394;BME280;32099;53.588;10.176;2023-03-22T04:01:43;100374.31;;;9.56;88.53
46394;BME280;32099;53.588;10.176;2023-03-22T04:04:17;100370.09;;;9.53;88.74
46394;BME280;32099;53.588;10.176;2023-03-22T04:06:50;100375.91;;;9.50;89.03
46394;BME280;32099;53.588;10.176;2023-03-22T04:09:15;100377.13;;;9.48;89.09
46394;BME280;32099;53.588;10.176;2023-03-22T04:11:41;100367.09;;;9.48;89.00
46394;BME280;32099;53.588;10.176;2023-03-22T04:14:06;100378.16;;;9.47;89.49
46394;BME280;32099;53.588;10.176;2023-03-22T04:16:32;100375.06;;;9.50;89.00
46394;BME280;32099;53.588;10.176;2023-03-22T04:18:57;100371.13;;;9.52;88.91
46394;BME280;32099;53.588;10.176;2023-03-22T04:21:22;100370.56;;;9.57;89.62
46394;BME280;32099;53.588;10.176;2023-03-22T04:23:48;100365.31;;;9.55;88.96
46394;BME280;32099;53.588;10.176;2023-03-22T04:26:13;100364.94;;;9.59;88.76
46394;BME280;32099;53.588;10.176;2023-03-22T04:28:39;100367.47;;;9.60;88.91
46394;BME280;32099;53.588;10.176;2023-03-22T04:31:04;100363.72;;;9.61;88.52
46394;BME280;32099;53.588;10.176;2023-03-22T04:33:30;100369.63;;;9.65;88.83
46394;BME280;32099;53.588;10.176;2023-03-22T04:35:56;100359.41;;;9.67;88.81
46394;BME280;32099;53.588;10.176;2023-03-22T04:38:22;100356.22;;;9.63;88.61
46394;BME280;32099;53.588;10.176;2023-03-22T04:40:49;100355.38;;;9.63;88.52
46394;BME280;32099;53.588;10.176;2023-03-22T04:43:15;100359.09;;;9.62;88.94
46394;BME280;32099;53.588;10.176;2023-03-22T04:45:42;100354.31;;;9.64;88.39
46394;BME280;32099;53.588;10.176;2023-03-22T04:48:08;100350.22;;;9.68;88.66
46394;BME280;32099;53.588;10.176;2023-03-22T04:50:35;100356.50;;;9.68;88.24
46394;BME280;32099;53.588;10.176;2023-03-22T04:53:00;100347.50;;;9.68;88.29
46394;BME280;32099;53.588;10.176;2023-03-22T04:55:25;100355.66;;;9.68;88.72
46394;BME280;32099;53.588;10.176;2023-03-22T04:57:51;100352.06;;;9.67;88.14
46394;BME280;32099;53.588;10.176;2023-03-22T05:00:18;100357.34;;;9.69;87.67
46394;BME280;32099;53.588;10.176;2023-03-22T05:02:45;100349.19;;;9.69;87.71
46394;BME280;32099;53.588;10.176;2023-03-22T05:05:10;100357.53;;;9.67;87.95
46394;BME280;32099;53.588;10.176;2023-03-22T05:07:36;100352.47;;;9.64;88.11
46394;BME280;32099;53.588;10.176;2023-03-22T05:10:03;100349.91;;;9.63;88.10
46394;BME280;32099;53.588;10.176;2023-03-22T05:12:29;100346.00;;;9.65;87.63
46394;BME280;32099;53.588;10.176;2023-03-22T05:14:55;100335.56;;;9.69;87.45
46394;BME280;32099;53.588;10.176;2023-03-22T05:17:20;100340.16;;;9.68;87.60
46394;BME280;32099;53.588;10.176;2023-03-22T05:19:46;100340.16;;;9.68;87.66
46394;BME280;32099;53.588;10.176;2023-03-22T05:22:11;100340.56;;;9.65;87.81
46394;BME280;32099;53.588;10.176;2023-03-22T05:24:37;100341.19;;;9.67;87.17
46394;BME280;32099;53.588;10.176;2023-03-22T05:27:03;100334.53;;;9.70;87.23
46394;BME280;32099;53.588;10.176;2023-03-22T05:29:29;100345.22;;;9.71;87.79
46394;BME280;32099;53.588;10.176;2023-03-22T05:32:00;100341.47;;;9.72;87.11
46394;BME280;32099;53.588;10.176;2023-03-22T05:34:26;100349.28;;;9.76;87.50
46394;BME280;32099;53.588;10.176;2023-03-22T05:36:59;100352.00;;;9.76;87.46
46394;BME280;32099;53.588;10.176;2023-03-22T05:39:24;100346.38;;;9.77;87.75
46394;BME280;32099;53.588;10.176;2023-03-22T05:41:50;100351.25;;;9.82;87.33
46394;BME280;32099;53.588;10.176;2023-03-22T05:44:15;100358.00;;;9.86;86.78
46394;BME280;32099;53.588;10.176;2023-03-22T05:46:40;100353.03;;;9.90;87.02
46394;BME280;32099;53.588;10.176;2023-03-22T05:49:06;100354.72;;;9.91;86.77
46394;BME280;32099;53.588;10.176;2023-03-22T05:51:31;100352.00;;;9.91;87.17
46394;BME280;32099;53.588;10.176;2023-03-22T05:53:56;100356.59;;;9.90;87.05
46394;BME280;32099;53.588;10.176;2023-03-22T05:56:21;100355.38;;;9.93;86.40
46394;BME280;32099;53.588;10.176;2023-03-22T05:58:49;100357.91;;;9.94;86.58
46394;BME280;32099;53.588;10.176;2023-03-22T06:01:15;100354.16;;;9.95;86.77
46394;BME280;32099;53.588;10.176;2023-03-22T06:03:41;100347.88;;;9.95;86.73
46394;BME280;32099;53.588;10.176;2023-03-22T06:06:07;100350.59;;;9.95;87.49
46394;BME280;32099;53.588;10.176;2023-03-22T06:08:34;100356.50;;;9.98;86.36
46394;BME280;32099;53.588;10.176;2023-03-22T06:11:00;100356.78;;;10.03;86.57
46394;BME280;32099;53.588;10.176;2023-03-22T06:13:26;100357.63;;;10.04;86.21
46394;BME280;32099;53.588;10.176;2023-03-22T06:15:51;100349.91;;;10.08;86.42
46394;BME280;32099;53.588;10.176;2023-03-22T06:18:18;100349.34;;;10.12;86.20
46394;BME280;32099;53.588;10.176;2023-03-22T06:20:43;100352.16;;;10.19;86.17
46394;BME280;32099;53.588;10.176;2023-03-22T06:23:08;100339.44;;;10.26;85.83
46394;BME280;32099;53.588;10.176;2023-03-22T06:25:34;100335.53;;;10.29;85.42
46394;BME280;32099;53.588;10.176;2023-03-22T06:27:59;100341.59;;;10.31;85.62
46394;BME280;32099;53.588;10.176;2023-03-22T06:30:25;100335.78;;;10.34;85.52
46394;BME280;32099;53.588;10.176;2023-03-22T06:32:50;100340.50;;;10.40;85.44
46394;BME280;32099;53.588;10.176;2023-03-22T06:35:15;100346.41;;;10.44;85.77
46394;BME280;32099;53.588;10.176;2023-03-22T06:37:41;100350.44;;;10.48;85.77
46394;BME280;32099;53.588;10.176;2023-03-22T06:40:09;100341.66;;;10.53;85.66
46394;BME280;32099;53.588;10.176;2023-03-22T06:42:34;100345.53;;;10.58;85.55
46394;BME280;32099;53.588;10.176;2023-03-22T06:45:00;100349.75;;;10.61;85.63
46394;BME280;32099;53.588;10.176;2023-03-22T06:47:26;100346.00;;;10.62;85.26
46394;BME280;32099;53.588;10.176;2023-03-22T06:49:52;100351.03;;;10.65;84.98
46394;BME280;32099;53.588;10.176;2023-03-22T06:52:18;100350.00;;;10.66;84.60
46394;BME280;32099;53.588;10.176;2023-03-22T06:54:44;100354.25;;;10.69;85.52
46394;BME280;32099;53.588;10.176;2023-03-22T06:57:09;100351.97;;;10.72;85.19
46394;BME280;32099;53.588;10.176;2023-03-22T06:59:35;100352.41;;;10.76;85.31
46394;BME280;32099;53.588;10.176;2023-03-22T07:02:01;100349.50;;;10.77;84.88
46394;BME280;32099;53.588;10.176;2023-03-22T07:04:26;100358.53;;;10.78;85.21
46394;BME280;32099;53.588;10.176;2023-03-22T07:06:52;100358.78;;;10.83;85.01
46394;BME280;32099;53.588;10.176;2023-03-22T07:09:17;100349.75;;;10.83;84.70
46394;BME280;32099;53.588;10.176;2023-03-22T07:11:42;100347.88;;;10.83;84.78
46394;BME280;32099;53.588;10.176;2023-03-22T07:14:08;100347.25;;;10.81;84.59
46394;BME280;32099;53.588;10.176;2023-03-22T07:16:33;100345.34;;;10.82;84.71
46394;BME280;32099;53.588;10.176;2023-03-22T07:18:58;100345.34;;;10.82;84.75
46394;BME280;32099;53.588;10.176;2023-03-22T07:21:24;100344.09;;;10.84;84.78
46394;BME280;32099;53.588;10.176;2023-03-22T07:23:49;100340.34;;;10.85;84.53
46394;BME280;32099;53.588;10.176;2023-03-22T07:26:14;100326.53;;;10.87;85.01
46394;BME280;32099;53.588;10.176;2023-03-22T07:28:40;100325.66;;;10.86;84.44
46394;BME280;32099;53.588;10.176;2023-03-22T07:31:08;100334.13;;;10.91;85.03
46394;BME280;32099;53.588;10.176;2023-03-22T07:33:35;100322.78;;;10.94;84.79
46394;BME280;32099;53.588;10.176;2023-03-22T07:36:01;100332.28;;;10.99;84.61
46394;BME280;32099;53.588;10.176;2023-03-22T07:38:27;100319.94;;;11.03;84.55
46394;BME280;32099;53.588;10.176;2023-03-22T07:40:52;100318.50;;;11.07;84.72
46394;BME280;32099;53.588;10.176;2023-03-22T07:43:19;100319.34;;;11.07;84.33
46394;BME280;32099;53.588;10.176;2023-03-22T07:45:44;100307.59;;;11.07;84.55
46394;BME280;32099;53.588;10.176;2023-03-22T07:48:10;100309.28;;;11.08;84.52
46394;BME280;32099;53.588;10.176;2023-03-22T07:50:35;100308.03;;;11.10;84.67
46394;BME280;32099;53.588;10.176;2023-03-22T07:53:01;100308.09;;;11.17;84.72
46394;BME280;32099;53.588;10.176;2023-03-22T07:55:27;100301.00;;;11.23;84.26
46394;BME280;32099;53.588;10.176;2023-03-22T07:57:53;100293.91;;;11.29;84.54
46394;BME280;32099;53.588;10.176;2023-03-22T08:00:18;100296.88;;;11.34;84.11
46394;BME280;32099;53.588;10.176;2023-03-22T08:02:44;100288.09;;;11.38;83.80
46394;BME280;32099;53.588;10.176;2023-03-22T08:05:10;100281.00;;;11.44;84.00
46394;BME280;32099;53.588;10.176;2023-03-22T08:07:35;100276.81;;;11.48;83.69
46394;BME280;32099;53.588;10.176;2023-03-22T08:10:01;100255.16;;;11.47;82.82
46394;BME280;32099;53.588;10.176;2023-03-22T08:12:26;100259.16;;;11.44;83.73
46394;BME280;32099;53.588;10.176;2023-03-22T08:14:52;100261.88;;;11.44;83.72
46394;BME280;32099;53.588;10.176;2023-03-22T08:17:17;100255.63;;;11.50;83.83
46394;BME280;32099;53.588;10.176;2023-03-22T08:19:43;100244.09;;;11.55;83.63
46394;BME280;32099;53.588;10.176;2023-03-22T08:22:09;100231.28;;;11.55;83.79
46394;BME280;32099;53.588;10.176;2023-03-22T08:24:35;100239.75;;;11.67;83.94
46394;BME280;32099;53.588;10.176;2023-03-22T08:27:01;100241.66;;;11.73;83.31
46394;BME280;32099;53.588;10.176;2023-03-22T08:29:26;100233.72;;;11.79;83.33
46394;BME280;32099;53.588;10.176;2023-03-22T08:31:51;100221.97;;;11.85;83.01
46394;BME280;32099;53.588;10.176;2023-03-22T08:34:17;100220.09;;;11.92;82.83
46394;BME280;32099;53.588;10.176;2023-03-22T08:36:42;100217.22;;;12.00;82.49
46394;BME280;32099;53.588;10.176;2023-03-22T08:39:07;100211.78;;;12.07;82.74
46394;BME280;32099;53.588;10.176;2023-03-22T08:41:33;100204.03;;;12.17;82.26
46394;BME280;32099;53.588;10.176;2023-03-22T08:43:59;100204.03;;;12.31;82.43
46394;BME280;32099;53.588;10.176;2023-03-22T08:46:24;100211.81;;;12.34;81.50
46394;BME280;32099;53.588;10.176;2023-03-22T08:48:49;100207.00;;;12.36;81.12
46394;BME280;32099;53.588;10.176;2023-03-22T08:51:16;100189.56;;;12.57;81.65
46394;BME280;32099;53.588;10.176;2023-03-22T08:53:42;100206.34;;;13.01;80.92
46394;BME280;32099;53.588;10.176;2023-03-22T08:56:07;100201.66;;;13.49;79.82
46394;BME280;32099;53.588;10.176;2023-03-22T08:58:33;100206.72;;;13.97;78.08
46394;BME280;32099;53.588;10.176;2023-03-22T09:00:59;100203.63;;;14.51;76.03
46394;BME280;32099;53.588;10.176;2023-03-22T09:03:24;100188.28;;;14.75;73.38
46394;BME280;32099;53.588;10.176;2023-03-22T09:05:49;100192.16;;;14.68;73.07
46394;BME280;32099;53.588;10.176;2023-03-22T09:08:15;100182.69;;;14.57;73.82
46394;BME280;32099;53.588;10.176;2023-03-22T09:10:40;100186.97;;;14.53;75.79
46394;BME280;32099;53.588;10.176;2023-03-22T09:13:05;100192.78;;;14.70;74.63
46394;BME280;32099;53.588;10.176;2023-03-22T09:15:31;100185.63;;;14.87;72.83
46394;BME280;32099;53.588;10.176;2023-03-22T09:17:56;100181.34;;;14.98;73.72
46394;BME280;32099;53.588;10.176;2023-03-22T09:20:21;100193.19;;;15.17;73.11
46394;BME280;32099;53.588;10.176;2023-03-22T09:22:49;100179.03;;;15.14;69.52
46394;BME280;32099;53.588;10.176;2023-03-22T09:25:15;100183.16;;;15.04;70.91
46394;BME280;32099;53.588;10.176;2023-03-22T09:27:41;100183.78;;;15.06;71.96
46394;BME280;32099;53.588;10.176;2023-03-22T09:30:06;100184.78;;;15.12;70.03
46394;BME280;32099;53.588;10.176;2023-03-22T09:32:32;100176.47;;;15.19;72.92
46394;BME280;32099;53.588;10.176;2023-03-22T09:34:57;100174.03;;;15.29;71.32
46394;BME280;32099;53.588;10.176;2023-03-22T09:37:22;100173.13;;;15.35;70.09
46394;BME280;32099;53.588;10.176;2023-03-22T09:39:54;100173.78;;;15.31;68.33
46394;BME280;32099;53.588;10.176;2023-03-22T09:42:27;100167.09;;;15.26;70.79
46394;BME280;32099;53.588;10.176;2023-03-22T09:44:58;100166.78;;;15.16;70.20
46394;BME280;32099;53.588;10.176;2023-03-22T09:47:30;100164.56;;;15.06;68.04
46394;BME280;32099;53.588;10.176;2023-03-22T09:50:04;100164.84;;;14.98;69.99
46394;BME280;32099;53.588;10.176;2023-03-22T09:52:35;100155.44;;;14.87;67.94
46394;BME280;32099;53.588;10.176;2023-03-22T09:55:01;100157.56;;;14.85;71.12
46394;BME280;32099;53.588;10.176;2023-03-22T09:57:33;100163.31;;;14.84;70.02
46394;BME280;32099;53.588;10.176;2023-03-22T10:00:10;100158.16;;;14.69;68.71
46394;BME280;32099;53.588;10.176;2023-03-22T10:10:52;100152.97;;;14.28;67.59
46394;BME280;32099;53.588;10.176;2023-03-22T10:15:49;100154.59;;;14.36;69.25
46394;BME280;32099;53.588;10.176;2023-03-22T10:18:24;100143.56;;;14.43;70.97
46394;BME280;32099;53.588;10.176;2023-03-22T10:20:58;100134.91;;;14.46;68.87
46394;BME280;32099;53.588;10.176;2023-03-22T10:26:04;100143.91;;;14.53;69.31
46394;BME280;32099;53.588;10.176;2023-03-22T10:28:38;100134.31;;;14.62;67.82
46394;BME280;32099;53.588;10.176;2023-03-22T10:31:09;100132.88;;;14.60;65.45
46394;BME280;32099;53.588;10.176;2023-03-22T10:33:40;100133.31;;;14.57;67.02
46394;BME280;32099;53.588;10.176;2023-03-22T10:36:14;100139.03;;;14.55;69.96
46394;BME280;32099;53.588;10.176;2023-03-22T10:38:46;100150.00;;;14.55;67.04
46394;BME280;32099;53.588;10.176;2023-03-22T10:41:17;100146.88;;;14.52;66.58
46394;BME280;32099;53.588;10.176;2023-03-22T10:43:47;100147.56;;;14.47;66.39
46394;BME280;32099;53.588;10.176;2023-03-22T10:46:20;100153.53;;;14.37;67.50
46394;BME280;32099;53.588;10.176;2023-03-22T10:48:50;100139.88;;;14.30;69.76
46394;BME280;32099;53.588;10.176;2023-03-22T10:51:25;100149.09;;;14.36;67.76
46394;BME280;32099;53.588;10.176;2023-03-22T10:53:53;100147.59;;;14.40;66.21
46394;BME280;32099;53.588;10.176;2023-03-22T10:56:20;100145.69;;;14.41;67.20
46394;BME280;32099;53.588;10.176;2023-03-22T10:58:46;100153.72;;;14.42;67.08
46394;BME280;32099;53.588;10.176;2023-03-22T11:01:14;100135.34;;;14.43;65.36
46394;BME280;32099;53.588;10.176;2023-03-22T11:03:48;100140.41;;;14.46;65.39
46394;BME280;32099;53.588;10.176;2023-03-22T11:06:22;100139.47;;;14.52;64.87
46394;BME280;32099;53.588;10.176;2023-03-22T11:08:58;100140.88;;;14.61;63.30
46394;BME280;32099;53.588;10.176;2023-03-22T11:11:29;100153.31;;;14.64;67.27
46394;BME280;32099;53.588;10.176;2023-03-22T11:19:30;100156.28;;;14.62;63.39
46394;BME280;32099;53.588;10.176;2023-03-22T11:21:58;100150.34;;;14.65;64.78
46394;BME280;32099;53.588;10.176;2023-03-22T11:24:25;100156.63;;;14.73;65.48
46394;BME280;32099;53.588;10.176;2023-03-22T11:29:47;100139.84;;;14.88;65.33
46394;BME280;32099;53.588;10.176;2023-03-22T11:32:19;100142.53;;;14.94;63.54
46394;BME280;32099;53.588;10.176;2023-03-22T11:35:04;100151.88;;;14.87;63.34
46394;BME280;32099;53.588;10.176;2023-03-22T11:37:43;100159.63;;;14.71;64.08
46394;BME280;32099;53.588;10.176;2023-03-22T11:40:16;100154.16;;;14.64;63.08
46394;BME280;32099;53.588;10.176;2023-03-22T11:42:44;100158.38;;;14.67;64.31
46394;BME280;32099;53.588;10.176;2023-03-22T11:45:14;100160.06;;;14.68;63.14
46394;BME280;32099;53.588;10.176;2023-03-22T11:47:45;100161.38;;;14.59;62.01
46394;BME280;32099;53.588;10.176;2023-03-22T11:50:25;100154.88;;;14.53;62.59
46394;BME280;32099;53.588;10.176;2023-03-22T11:52:52;100158.97;;;14.44;62.19
46394;BME280;32099;53.588;10.176;2023-03-22T11:55:21;100164.22;;;14.45;64.82
46394;BME280;32099;53.588;10.176;2023-03-22T11:57:47;100157.22;;;14.49;62.24
46394;BME280;32099;53.588;10.176;2023-03-22T12:00:18;100140.78;;;14.49;62.58
46394;BME280;32099;53.588;10.176;2023-03-22T12:02:49;100143.91;;;14.53;61.85
46394;BME280;32099;53.588;10.176;2023-03-22T12:05:19;100138.97;;;14.62;65.30
46394;BME280;32099;53.588;10.176;2023-03-22T12:07:48;100149.88;;;14.75;61.87
46394;BME280;32099;53.588;10.176;2023-03-22T12:10:20;100133.78;;;14.79;61.38
46394;BME280;32099;53.588;10.176;2023-03-22T12:13:37;100123.44;;;14.81;60.69
46394;BME280;32099;53.588;10.176;2023-03-22T12:15:39;100127.00;;;14.81;61.18
46394;BME280;32099;53.588;10.176;2023-03-22T12:18:16;100134.25;;;14.76;63.09
46394;BME280;32099;53.588;10.176;2023-03-22T12:20:48;100140.34;;;14.78;62.07
46394;BME280;32099;53.588;10.176;2023-03-22T12:23:20;100135.47;;;14.80;62.44
46394;BME280;32099;53.588;10.176;2023-03-22T12:26:00;100131.50;;;14.76;61.05
46394;BME280;32099;53.588;10.176;2023-03-22T12:31:04;100145.72;;;14.66;60.71
46394;BME280;32099;53.588;10.176;2023-03-22T12:36:16;100121.47;;;14.63;62.98
46394;BME280;32099;53.588;10.176;2023-03-22T12:41:11;100127.13;;;14.68;63.27
46394;BME280;32099;53.588;10.176;2023-03-22T12:43:51;100138.72;;;14.70;63.30
46394;BME280;32099;53.588;10.176;2023-03-22T12:46:20;100123.69;;;14.73;64.25
46394;BME280;32099;53.588;10.176;2023-03-22T12:51:41;100122.91;;;14.65;62.34
46394;BME280;32099;53.588;10.176;2023-03-22T12:54:08;100115.34;;;14.61;61.71
46394;BME280;32099;53.588;10.176;2023-03-22T12:56:37;100142.78;;;14.61;60.85
46394;BME280;32099;53.588;10.176;2023-03-22T12:59:09;100140.28;;;14.59;61.52
46394;BME280;32099;53.588;10.176;2023-03-22T13:02:14;100141.34;;;14.58;62.20
46394;BME280;32099;53.588;10.176;2023-03-22T13:07:08;100122.88;;;14.47;62.68
46394;BME280;32099;53.588;10.176;2023-03-22T13:17:13;100146.44;;;13.97;69.12
46394;BME280;32099;53.588;10.176;2023-03-22T13:19:50;100139.91;;;13.92;68.34
46394;BME280;32099;53.588;10.176;2023-03-22T13:22:26;100146.31;;;13.85;70.65
46394;BME280;32099;53.588;10.176;2023-03-22T13:25:00;100150.75;;;13.80;70.64
46394;BME280;32099;53.588;10.176;2023-03-22T13:27:50;100156.06;;;13.68;70.56
46394;BME280;32099;53.588;10.176;2023-03-22T13:30:26;100152.72;;;13.59;70.61
46394;BME280;32099;53.588;10.176;2023-03-22T13:32:59;100151.09;;;13.51;70.75
46394;BME280;32099;53.588;10.176;2023-03-22T13:38:15;100155.97;;;13.42;72.39
46394;BME280;32099;53.588;10.176;2023-03-22T13:40:48;100157.66;;;13.37;71.80
46394;BME280;32099;53.588;10.176;2023-03-22T13:43:30;100149.22;;;13.32;71.93
46394;BME280;32099;53.588;10.176;2023-03-22T13:59:12;100132.16;;;13.43;69.35
46394;BME280;32099;53.588;10.176;2023-03-22T14:01:46;100144.16;;;13.35;68.52
46394;BME280;32099;53.588;10.176;2023-03-22T14:04:18;100138.91;;;13.34;69.95
46394;BME280;32099;53.588;10.176;2023-03-22T14:06:54;100133.44;;;13.34;68.83
46394;BME280;32099;53.588;10.176;2023-03-22T14:09:26;100143.75;;;13.32;68.82
46394;BME280;32099;53.588;10.176;2023-03-22T14:12:06;100152.81;;;13.32;69.90
46394;BME280;32099;53.588;10.176;2023-03-22T14:14:42;100150.91;;;13.33;70.70
46394;BME280;32099;53.588;10.176;2023-03-22T14:19:41;100151.56;;;13.28;68.26
46394;BME280;32099;53.588;10.176;2023-03-22T14:22:09;100157.25;;;13.26;70.02
46394;BME280;32099;53.588;10.176;2023-03-22T14:24:41;100155.75;;;13.31;70.50